CTFK1: Cottonwood Rv Cotwd Falls

                                SHEF ID:       CTFK1     Cottonwood Rv Cotwd Falls
STATION TYPE:

PRECIP STAGE RIV-FLOW BAT-LOAD
in ft cfs volt
Ccp-Rev Ccp-Rev Ccp-Rev Ccp-Rev
(America/Chicago)
08/12 00:00 0.00 22.62 5133 12.48
08/12 01:00 0.00 23.11 5385 12.47
08/12 02:00 0.00 23.52 5601 12.44
08/12 03:00 0.00 23.83 5766 12.43
08/12 04:00 0.00 24.06 5890 12.43
08/12 05:00 0.00 24.20 5965 12.42
08/12 06:00 0.00 24.28 6009 12.40
08/12 07:00 0.00 24.29 6014 12.37
08/12 08:00 0.00 24.25 5993 12.36
08/12 09:00 0.00 24.14 5933 12.44
08/12 10:00 0.00 23.98 5846 12.71
08/12 11:00 0.00 23.75 5723 13.16
08/12 12:00 0.00 23.49 5585 13.43
08/12 13:00 0.00 23.17 5417 13.38
08/12 14:00 0.00 22.81 5230 13.17
08/12 15:00 0.00 22.40 5021 13.10
08/12 16:00 0.00 21.94 4790 13.12
08/12 17:00 0.00 21.46 4554 13.07
08/12 18:00 0.00 20.95 4309 12.96
08/12 19:00 0.00 20.41 4055 12.94
08/12 20:00 0.00 19.85 3799 12.90
08/12 21:00 0.00 19.28 3545 12.70
08/12 22:00 0.00 18.69 3290 12.54
08/12 23:00 0.00 18.09 3039 12.50
Data processed at Wed 13Aug2025 04:06 GMT

Parsing this webpage?

Checkout our new Data API! CWMSDataAPI (CDA)

Timeseries IDs (TSIDs)

TSIDs used from left to right in the data table
COTF.Precip-Inc.Total.1Hour.1Hour.Ccp-Rev
COTF.Stage.Inst.1Hour.0.Ccp-Rev
COTF.Flow.Inst.1Hour.0.Ccp-Rev
COTF.Volt-Battery Load.Inst.1Hour.0.Ccp-Rev

                            

All information presented herein is the property of the government of the United States of America and may be revised or deleted at any time without prior notice. Dissemination of this information without the expressed written consent of the Public Affairs Office, Tulsa District U.S. Army Corps of Engineers is strictly prohibited. These data are gathered electronically and, as presented, have NOT undergone any form of quality control. These data are NOT guaranteed to be valid or correct.